createdAt,value
2023-02-15T00:00:13.242Z,100602.64
2023-02-15T00:02:40.008Z,100600.30
2023-02-15T00:05:07.478Z,100603.70
2023-02-15T00:07:34.474Z,100607.83
2023-02-15T00:10:01.145Z,100607.95
2023-02-15T00:12:28.871Z,100611.58
2023-02-15T00:14:55.567Z,100607.70
2023-02-15T00:17:22.236Z,100610.72
2023-02-15T00:19:48.973Z,100607.84
2023-02-15T00:22:15.741Z,100605.09
2023-02-15T00:24:42.733Z,100609.44
2023-02-15T00:27:09.574Z,100608.39
2023-02-15T00:29:38.492Z,100606.16
2023-02-15T00:32:06.536Z,100607.72
2023-02-15T00:34:33.082Z,100609.80
2023-02-15T00:37:00.852Z,100610.29
2023-02-15T00:39:29.297Z,100612.85
2023-02-15T00:41:56.127Z,100610.31
2023-02-15T00:44:22.954Z,100613.79
2023-02-15T00:46:49.647Z,100618.11
2023-02-15T00:49:16.612Z,100621.95
2023-02-15T00:51:43.405Z,100620.45
2023-02-15T00:54:10.330Z,100618.91
2023-02-15T00:56:37.886Z,100618.77
2023-02-15T00:59:09.645Z,100626.08
2023-02-15T01:01:37.252Z,100623.66
2023-02-15T01:04:04.362Z,100622.95
2023-02-15T01:06:31.139Z,100627.40
2023-02-15T01:08:57.776Z,100625.51
2023-02-15T01:11:24.518Z,100619.13
2023-02-15T01:13:56.044Z,100620.45
2023-02-15T01:16:23.910Z,100618.46
2023-02-15T01:18:57.468Z,100617.50
2023-02-15T01:21:25.356Z,100617.75
2023-02-15T01:23:52.029Z,100615.73
2023-02-15T01:26:18.987Z,100618.60
2023-02-15T01:28:45.814Z,100620.36
2023-02-15T01:31:18.386Z,100618.66
2023-02-15T01:33:46.862Z,100619.55
2023-02-15T01:36:14.665Z,100620.63
2023-02-15T01:39:38.388Z,100619.41
2023-02-15T01:42:27.790Z,100623.55
2023-02-15T01:44:58.889Z,100622.00
2023-02-15T01:47:35.109Z,100620.11
2023-02-15T01:50:14.214Z,100630.40
2023-02-15T01:52:47.285Z,100632.13
2023-02-15T01:55:14.037Z,100633.59
2023-02-15T01:57:41.384Z,100634.80
2023-02-15T02:00:13.758Z,100630.59
2023-02-15T02:02:43.024Z,100634.45
2023-02-15T02:05:09.919Z,100630.77
2023-02-15T02:07:42.286Z,100632.05
2023-02-15T02:10:10.985Z,100632.11
2023-02-15T02:12:39.438Z,100631.36
2023-02-15T02:18:09.569Z,100635.75
2023-02-15T02:20:57.106Z,100636.87
2023-02-15T02:23:26.093Z,100638.69
2023-02-15T02:26:11.134Z,100638.69
2023-02-15T02:29:04.946Z,100637.29
2023-02-15T02:31:52.237Z,100636.61
2023-02-15T02:34:30.042Z,100639.09
2023-02-15T02:37:17.334Z,100639.55
2023-02-15T02:40:05.229Z,100641.48
2023-02-15T02:42:54.804Z,100639.27
2023-02-15T02:45:42.254Z,100645.05
2023-02-15T02:48:15.139Z,100645.06
2023-02-15T02:50:43.629Z,100649.49
2023-02-15T02:53:14.941Z,100650.34
2023-02-15T02:55:48.437Z,100646.85
2023-02-15T02:58:38.633Z,100648.98
2023-02-15T03:01:12.270Z,100648.31
2023-02-15T03:03:48.641Z,100652.38
2023-02-15T03:06:29.259Z,100652.72
2023-02-15T03:09:04.597Z,100656.17
2023-02-15T03:11:32.878Z,100659.30
2023-02-15T03:14:01.566Z,100661.19
2023-02-15T03:16:29.976Z,100664.52
2023-02-15T03:19:10.717Z,100658.01
2023-02-15T03:21:58.766Z,100659.33
2023-02-15T03:24:37.480Z,100654.38
2023-02-15T03:27:11.956Z,100660.91
2023-02-15T03:29:40.778Z,100658.29
2023-02-15T03:32:10.451Z,100660.60
2023-02-15T03:34:38.873Z,100659.39
2023-02-15T03:37:19.702Z,100664.95
2023-02-15T03:39:55.187Z,100665.70
2023-02-15T03:42:27.968Z,100665.50
2023-02-15T03:45:13.808Z,100668.45
2023-02-15T03:47:47.678Z,100665.73
2023-02-15T03:50:41.034Z,100671.69
2023-02-15T03:53:10.937Z,100677.61
2023-02-15T03:55:40.554Z,100678.36
2023-02-15T03:58:27.813Z,100675.44
2023-02-15T04:01:19.355Z,100674.05
2023-02-15T04:03:55.008Z,100675.27
2023-02-15T04:06:23.052Z,100673.84
2023-02-15T04:09:09.802Z,100680.27
2023-02-15T04:11:41.270Z,100683.61
2023-02-15T04:14:28.285Z,100686.93
2023-02-15T04:16:56.783Z,100691.10
2023-02-15T04:19:43.840Z,100692.84
2023-02-15T04:22:30.875Z,100696.69
2023-02-15T04:25:14.354Z,100696.96
2023-02-15T04:27:44.562Z,100698.85
2023-02-15T04:30:13.494Z,100700.30
2023-02-15T04:32:41.553Z,100692.84
2023-02-15T04:35:10.454Z,100688.08
2023-02-15T04:37:41.956Z,100689.06
2023-02-15T04:40:11.932Z,100694.77
2023-02-15T04:42:40.044Z,100694.30
2023-02-15T04:45:09.126Z,100699.33
2023-02-15T04:47:37.618Z,100697.19
2023-02-15T04:50:06.545Z,100694.92
2023-02-15T04:52:35.598Z,100694.59
2023-02-15T04:55:05.008Z,100699.42
2023-02-15T04:57:33.722Z,100698.41
2023-02-15T05:00:01.975Z,100699.45
2023-02-15T05:02:30.156Z,100705.48
2023-02-15T05:04:58.453Z,100706.46
2023-02-15T05:07:26.505Z,100710.84
2023-02-15T05:09:54.768Z,100712.99
2023-02-15T05:12:22.834Z,100718.42
2023-02-15T05:14:51.018Z,100720.75
2023-02-15T05:17:19.736Z,100727.17
2023-02-15T05:19:48.215Z,100725.41
2023-02-15T05:22:16.324Z,100734.23
2023-02-15T05:25:03.517Z,100737.22
2023-02-15T05:27:50.504Z,100736.73
2023-02-15T05:30:19.117Z,100738.01
2023-02-15T05:32:48.298Z,100739.09
2023-02-15T05:35:16.978Z,100739.09
2023-02-15T05:37:45.112Z,100739.80
2023-02-15T05:40:13.413Z,100738.67
2023-02-15T05:42:42.236Z,100738.80
2023-02-15T05:45:11.050Z,100745.56
2023-02-15T05:47:39.030Z,100746.38
2023-02-15T05:50:08.815Z,100747.56
2023-02-15T05:52:37.149Z,100746.68
2023-02-15T05:55:06.450Z,100745.90
2023-02-15T05:57:34.771Z,100749.51
2023-02-15T06:00:05.462Z,100755.69
2023-02-15T06:02:39.962Z,100756.79
2023-02-15T06:05:08.783Z,100758.35
2023-02-15T06:07:36.939Z,100767.10
2023-02-15T06:10:06.367Z,100765.31
2023-02-15T06:12:34.723Z,100764.19
2023-02-15T06:15:05.102Z,100769.87
2023-02-15T06:17:33.736Z,100775.36
2023-02-15T06:20:02.030Z,100776.15
2023-02-15T06:22:30.807Z,100781.52
2023-02-15T06:24:59.295Z,100781.23
2023-02-15T06:27:27.886Z,100778.98
2023-02-15T06:29:56.808Z,100780.29
2023-02-15T06:32:25.164Z,100778.79
2023-02-15T06:34:53.715Z,100781.02
2023-02-15T06:37:21.930Z,100778.27
2023-02-15T06:39:51.076Z,100778.41
2023-02-15T06:42:19.575Z,100776.89
2023-02-15T06:44:48.098Z,100774.73
2023-02-15T06:47:16.076Z,100775.44
2023-02-15T06:49:44.443Z,100770.18
2023-02-15T06:52:14.263Z,100769.85
2023-02-15T06:54:43.516Z,100772.33
2023-02-15T06:57:11.995Z,100774.59
2023-02-15T06:59:42.932Z,100767.96
2023-02-15T07:02:14.722Z,100762.06
2023-02-15T07:04:43.298Z,100764.69
2023-02-15T07:07:12.678Z,100759.20
2023-02-15T07:09:43.910Z,100758.40
2023-02-15T07:12:31.570Z,100749.70
2023-02-15T07:15:00.319Z,100752.95
2023-02-15T07:17:37.205Z,100752.14
2023-02-15T07:20:08.894Z,100749.06
2023-02-15T07:22:38.238Z,100746.63
2023-02-15T07:25:08.514Z,100751.57
2023-02-15T07:27:36.870Z,100747.20
2023-02-15T07:30:06.592Z,100748.08
2023-02-15T07:32:36.360Z,100741.60
2023-02-15T07:35:04.689Z,100745.77
2023-02-15T07:37:33.696Z,100740.45
2023-02-15T07:40:02.050Z,100737.45
2023-02-15T07:42:31.751Z,100739.68
2023-02-15T07:45:00.226Z,100737.95
2023-02-15T07:47:28.419Z,100740.01
2023-02-15T07:49:58.416Z,100742.74
2023-02-15T07:52:26.873Z,100749.33
2023-02-15T07:54:55.589Z,100752.67
2023-02-15T07:57:25.700Z,100756.93
2023-02-15T07:59:53.976Z,100761.61
2023-02-15T08:02:22.266Z,100766.83
2023-02-15T08:04:50.428Z,100770.48
2023-02-15T08:07:18.672Z,100771.54
2023-02-15T08:09:46.603Z,100774.41
2023-02-15T08:12:15.175Z,100780.70
2023-02-15T08:14:43.472Z,100780.50
2023-02-15T08:17:11.847Z,100781.55
2023-02-15T08:19:51.601Z,100780.26
2023-02-15T08:22:20.255Z,100773.24
2023-02-15T08:24:48.702Z,100780.69
2023-02-15T08:27:16.949Z,100781.56
2023-02-15T08:29:45.673Z,100776.34
2023-02-15T08:32:14.999Z,100770.85
2023-02-15T08:34:43.963Z,100774.58
2023-02-15T08:37:13.289Z,100774.08
2023-02-15T08:39:42.785Z,100771.52
2023-02-15T08:42:10.864Z,100777.34
2023-02-15T08:44:39.379Z,100779.42
2023-02-15T08:47:07.341Z,100776.96
2023-02-15T08:49:36.563Z,100774.40
2023-02-15T08:52:04.833Z,100776.15
2023-02-15T08:54:33.109Z,100782.64
2023-02-15T08:57:01.100Z,100782.26
2023-02-15T08:59:29.925Z,100783.70
2023-02-15T09:01:58.158Z,100784.67
2023-02-15T09:04:26.396Z,100783.84
2023-02-15T09:06:56.208Z,100781.05
2023-02-15T09:09:32.231Z,100786.39
2023-02-15T09:12:00.448Z,100782.81
2023-02-15T09:14:28.561Z,100781.70
2023-02-15T09:16:57.025Z,100780.39
2023-02-15T09:19:25.335Z,100781.85
2023-02-15T09:21:55.092Z,100784.76
2023-02-15T09:24:23.869Z,100786.33
2023-02-15T09:26:54.734Z,100786.19
2023-02-15T09:29:23.844Z,100784.58
2023-02-15T09:31:52.118Z,100780.21
2023-02-15T09:34:22.602Z,100776.42
2023-02-15T09:36:51.127Z,100777.17
2023-02-15T09:39:22.178Z,100774.50
2023-02-15T09:42:05.448Z,100780.04
2023-02-15T09:44:56.879Z,100778.48
2023-02-15T09:47:59.032Z,100777.41
2023-02-15T09:50:49.282Z,100779.13
2023-02-15T09:53:23.330Z,100782.02
2023-02-15T09:56:25.714Z,100780.48
2023-02-15T09:59:11.821Z,100772.95
2023-02-15T10:02:00.264Z,100771.77
2023-02-15T10:04:55.939Z,100767.33
2023-02-15T10:07:55.683Z,100765.77
2023-02-15T10:10:48.045Z,100761.82
2023-02-15T10:13:20.186Z,100761.05
2023-02-15T10:15:58.291Z,100759.54
2023-02-15T10:18:41.937Z,100757.97
2023-02-15T10:21:40.578Z,100754.69
2023-02-15T10:24:40.475Z,100746.29
2023-02-15T10:27:13.934Z,100752.53
2023-02-15T10:30:09.310Z,100748.23
2023-02-15T10:32:48.170Z,100742.67
2023-02-15T10:35:42.152Z,100742.65
2023-02-15T10:38:19.370Z,100742.40
2023-02-15T10:41:26.069Z,100738.89
2023-02-15T10:44:13.804Z,100741.73
2023-02-15T10:47:03.250Z,100743.45
2023-02-15T10:49:43.763Z,100739.27
2023-02-15T10:52:30.424Z,100749.78
2023-02-15T10:55:19.953Z,100740.27
2023-02-15T10:58:09.219Z,100740.96
2023-02-15T11:01:09.548Z,100741.05
2023-02-15T11:03:43.672Z,100736.19
2023-02-15T11:06:21.146Z,100735.16
2023-02-15T11:08:52.099Z,100733.11
2023-02-15T11:11:36.218Z,100729.98
2023-02-15T11:14:26.232Z,100728.10
2023-02-15T11:16:56.757Z,100732.21
2023-02-15T11:19:33.104Z,100731.81
2023-02-15T11:22:03.716Z,100727.65
2023-02-15T11:24:33.835Z,100727.67
2023-02-15T11:27:14.151Z,100725.86
2023-02-15T11:29:56.461Z,100720.80
2023-02-15T11:32:29.794Z,100724.91
2023-02-15T11:35:02.531Z,100723.28
2023-02-15T11:37:38.413Z,100720.93
2023-02-15T11:40:16.102Z,100720.30
2023-02-15T11:42:44.636Z,100723.64
2023-02-15T11:45:19.218Z,100717.59
2023-02-15T11:47:47.198Z,100716.70
2023-02-15T11:50:18.872Z,100718.95
2023-02-15T11:52:46.748Z,100715.23
2023-02-15T11:55:18.010Z,100718.23
2023-02-15T11:58:09.848Z,100716.02
2023-02-15T12:00:45.977Z,100715.09
2023-02-15T12:03:36.893Z,100709.08
2023-02-15T12:06:32.478Z,100706.02
2023-02-15T12:09:25.495Z,100700.59
2023-02-15T12:11:53.654Z,100697.08
2023-02-15T12:14:21.856Z,100689.94
2023-02-15T12:16:55.053Z,100691.50
2023-02-15T12:19:34.027Z,100688.23
2023-02-15T12:22:05.701Z,100687.57
2023-02-15T12:24:37.887Z,100685.21
2023-02-15T12:27:39.227Z,100684.17
2023-02-15T12:30:18.004Z,100687.30
2023-02-15T12:32:55.133Z,100690.13
2023-02-15T12:35:34.705Z,100687.83
2023-02-15T12:38:11.824Z,100692.60
2023-02-15T12:40:41.310Z,100690.17
2023-02-15T12:43:43.484Z,100689.00
2023-02-15T12:46:21.813Z,100689.48
2023-02-15T12:49:20.538Z,100686.96
2023-02-15T12:51:53.841Z,100679.21
2023-02-15T12:54:41.500Z,100682.73
2023-02-15T12:57:29.332Z,100680.80
2023-02-15T13:00:04.352Z,100688.13
2023-02-15T13:02:41.564Z,100687.14
2023-02-15T13:05:42.882Z,100689.31
2023-02-15T13:08:13.926Z,100690.41
2023-02-15T13:11:05.124Z,100691.33
2023-02-15T13:13:35.633Z,100692.48
2023-02-15T13:16:07.297Z,100697.31
2023-02-15T13:18:40.192Z,100696.48
2023-02-15T13:21:15.005Z,100696.60
2023-02-15T13:23:47.113Z,100701.40
2023-02-15T13:26:21.145Z,100699.89
2023-02-15T13:28:57.312Z,100700.45
2023-02-15T13:31:29.049Z,100703.35
2023-02-15T13:34:20.850Z,100704.75
2023-02-15T13:37:21.125Z,100700.70
2023-02-15T13:40:07.978Z,100706.55
2023-02-15T13:42:41.781Z,100706.80
2023-02-15T13:45:16.203Z,100708.44
2023-02-15T13:47:56.788Z,100711.20
2023-02-15T13:50:30.306Z,100706.98
2023-02-15T13:53:08.074Z,100708.11
2023-02-15T13:55:55.731Z,100710.44
2023-02-15T13:58:36.058Z,100710.90
2023-02-15T14:01:12.041Z,100711.10
2023-02-15T14:04:04.035Z,100707.95
2023-02-15T14:06:54.234Z,100709.20
2023-02-15T14:09:40.926Z,100713.02
2023-02-15T14:12:23.296Z,100712.36
2023-02-15T14:15:01.019Z,100710.88
2023-02-15T14:17:48.024Z,100712.64
2023-02-15T14:20:33.392Z,100713.32
2023-02-15T14:23:30.687Z,100712.50
2023-02-15T14:26:05.542Z,100720.92
2023-02-15T14:28:56.138Z,100717.38
2023-02-15T14:31:34.604Z,100719.16
2023-02-15T14:35:51.295Z,100718.59
2023-02-15T14:38:34.572Z,100724.00
2023-02-15T14:41:20.867Z,100721.95
2023-02-15T14:44:17.020Z,100725.41
2023-02-15T14:46:59.887Z,100729.13
2023-02-15T14:49:32.088Z,100731.60
2023-02-15T14:52:11.804Z,100731.49
2023-02-15T14:54:39.942Z,100733.31
2023-02-15T14:57:08.236Z,100734.52
2023-02-15T14:59:37.908Z,100739.39
2023-02-15T15:02:09.691Z,100739.74
2023-02-15T15:04:40.834Z,100744.33
2023-02-15T15:07:24.460Z,100747.58
2023-02-15T15:10:21.178Z,100747.55
2023-02-15T15:12:56.275Z,100750.41
2023-02-15T15:15:27.909Z,100751.05
2023-02-15T15:18:08.538Z,100748.77
2023-02-15T15:20:51.725Z,100752.88
2023-02-15T15:23:21.211Z,100757.69
2023-02-15T15:25:55.382Z,100761.75
2023-02-15T15:28:35.750Z,100763.65
2023-02-15T15:31:32.939Z,100760.84
2023-02-15T15:34:23.013Z,100765.17
2023-02-15T15:36:59.999Z,100767.80
2023-02-15T15:40:06.078Z,100773.27
2023-02-15T15:42:49.460Z,100774.65
2023-02-15T15:45:43.478Z,100772.59
2023-02-15T15:48:36.671Z,100772.83
2023-02-15T15:51:11.032Z,100772.60
2023-02-15T15:53:43.479Z,100769.90
2023-02-15T15:56:25.999Z,100775.02
2023-02-15T15:58:57.221Z,100775.89
2023-02-15T16:01:29.685Z,100776.05
2023-02-15T16:03:59.355Z,100774.95
2023-02-15T16:06:31.677Z,100779.57
2023-02-15T16:09:14.565Z,100785.15
2023-02-15T16:11:43.412Z,100784.57
2023-02-15T16:14:38.708Z,100791.02
2023-02-15T16:17:17.269Z,100796.58
2023-02-15T16:19:45.428Z,100794.02
2023-02-15T16:22:16.609Z,100794.80
2023-02-15T16:24:48.041Z,100794.63
2023-02-15T16:27:36.079Z,100796.92
2023-02-15T16:30:37.537Z,100802.14
2023-02-15T16:33:16.999Z,100804.02
2023-02-15T16:35:55.620Z,100802.95
2023-02-15T16:38:43.101Z,100806.58
2023-02-15T16:41:15.212Z,100807.55
2023-02-15T16:43:45.066Z,100805.50
2023-02-15T16:46:16.612Z,100805.50
2023-02-15T16:48:46.844Z,100804.80
2023-02-15T16:51:27.569Z,100801.12
2023-02-15T16:53:57.829Z,100802.91
2023-02-15T16:56:27.723Z,100804.88
2023-02-15T16:58:55.894Z,100806.34
2023-02-15T17:01:25.340Z,100808.84
2023-02-15T17:04:15.183Z,100806.62
2023-02-15T17:06:43.482Z,100805.61
2023-02-15T17:09:19.557Z,100809.21
2023-02-15T17:11:47.806Z,100812.86
2023-02-15T17:14:21.943Z,100810.64
2023-02-15T17:16:54.327Z,100812.16
2023-02-15T17:19:54.823Z,100811.29
2023-02-15T17:22:25.300Z,100813.22
2023-02-15T17:25:01.078Z,100813.90
2023-02-15T17:27:30.302Z,100812.48
2023-02-15T17:30:03.464Z,100808.96
2023-02-15T17:32:32.705Z,100808.35
2023-02-15T17:35:09.505Z,100804.72
2023-02-15T17:37:37.687Z,100806.61
2023-02-15T17:40:23.516Z,100804.27
2023-02-15T17:42:51.915Z,100804.23
2023-02-15T17:45:20.624Z,100802.04
2023-02-15T17:47:49.910Z,100802.44
2023-02-15T17:50:23.312Z,100800.17
2023-02-15T17:52:52.257Z,100798.26
2023-02-15T17:55:41.368Z,100796.64
2023-02-15T17:58:17.105Z,100798.96
2023-02-15T18:01:12.064Z,100800.71
2023-02-15T18:04:06.850Z,100798.80
2023-02-15T18:06:54.878Z,100802.77
2023-02-15T18:09:41.760Z,100802.52
2023-02-15T18:12:23.561Z,100803.94
2023-02-15T18:14:52.433Z,100804.52
2023-02-15T18:17:34.553Z,100799.87
2023-02-15T18:20:05.637Z,100802.58
2023-02-15T18:22:33.965Z,100805.23
2023-02-15T18:25:01.950Z,100806.98
2023-02-15T18:27:30.355Z,100805.95
2023-02-15T18:29:59.124Z,100806.99
2023-02-15T18:32:32.039Z,100804.17
2023-02-15T18:35:00.388Z,100809.55
2023-02-15T18:37:30.831Z,100808.31
2023-02-15T18:39:58.756Z,100810.14
2023-02-15T18:42:35.291Z,100810.38
2023-02-15T18:45:21.405Z,100808.86
2023-02-15T18:47:49.674Z,100808.59
2023-02-15T18:50:19.734Z,100813.20
2023-02-15T18:52:48.940Z,100812.42
2023-02-15T18:55:22.124Z,100814.80
2023-02-15T18:57:51.910Z,100810.49
2023-02-15T19:00:32.256Z,100806.09
2023-02-15T19:03:02.039Z,100809.83
2023-02-15T19:05:31.164Z,100809.86
2023-02-15T19:08:00.276Z,100814.33
2023-02-15T19:10:29.878Z,100814.58
2023-02-15T19:12:58.261Z,100811.54
2023-02-15T19:15:30.553Z,100808.05
2023-02-15T19:17:59.552Z,100804.95
2023-02-15T19:20:41.919Z,100803.38
2023-02-15T19:23:23.839Z,100804.55
2023-02-15T19:25:52.638Z,100800.61
2023-02-15T19:28:27.712Z,100802.19
2023-02-15T19:30:56.071Z,100801.38
2023-02-15T19:33:24.635Z,100798.85
2023-02-15T19:35:57.753Z,100801.24
2023-02-15T19:38:29.473Z,100802.55
2023-02-15T19:41:08.531Z,100804.20
2023-02-15T19:43:37.276Z,100803.55
2023-02-15T19:46:05.753Z,100804.28
2023-02-15T19:48:34.757Z,100805.17
2023-02-15T19:51:06.112Z,100800.79
2023-02-15T19:53:34.199Z,100807.09
2023-02-15T19:56:02.913Z,100801.00
2023-02-15T19:58:33.688Z,100804.77
2023-02-15T20:01:03.318Z,100803.56
2023-02-15T20:03:32.546Z,100803.71
2023-02-15T20:06:00.749Z,100805.71
2023-02-15T20:08:34.622Z,100807.11
2023-02-15T20:11:03.166Z,100807.14
2023-02-15T20:13:31.944Z,100804.85
2023-02-15T20:16:05.410Z,100803.88
2023-02-15T20:18:34.347Z,100798.54
2023-02-15T20:21:03.618Z,100801.30
2023-02-15T20:23:37.347Z,100802.41
2023-02-15T20:26:18.615Z,100802.39
2023-02-15T20:28:47.310Z,100800.34
2023-02-15T20:31:16.809Z,100798.55
2023-02-15T20:33:46.337Z,100800.05
2023-02-15T20:36:20.214Z,100800.77
2023-02-15T20:38:48.985Z,100802.66
2023-02-15T20:41:37.818Z,100801.13
2023-02-15T20:44:20.932Z,100798.73
2023-02-15T20:46:50.224Z,100797.38
2023-02-15T20:49:18.807Z,100796.66
2023-02-15T20:51:48.082Z,100796.84
2023-02-15T20:54:21.777Z,100793.34
2023-02-15T20:56:49.924Z,100798.45
2023-02-15T20:59:30.631Z,100791.48
2023-02-15T21:02:00.829Z,100791.98
2023-02-15T21:04:31.196Z,100793.80
2023-02-15T21:07:00.143Z,100793.44
2023-02-15T21:09:29.057Z,100792.95
2023-02-15T21:11:58.865Z,100793.85
2023-02-15T21:14:27.552Z,100796.12
2023-02-15T21:16:55.932Z,100798.08
2023-02-15T21:19:24.221Z,100794.73
2023-02-15T21:21:53.149Z,100800.20
2023-02-15T21:24:28.478Z,100794.82
2023-02-15T21:26:57.126Z,100792.06
2023-02-15T21:29:26.642Z,100795.19
2023-02-15T21:31:54.872Z,100797.42
2023-02-15T21:34:23.128Z,100797.41
2023-02-15T21:36:51.466Z,100802.86
2023-02-15T21:39:24.370Z,100800.31
2023-02-15T21:42:11.947Z,100804.13
2023-02-15T21:44:59.199Z,100804.23
2023-02-15T21:47:48.500Z,100802.86
2023-02-15T21:50:37.033Z,100806.86
2023-02-15T21:53:05.500Z,100806.42
2023-02-15T21:55:33.572Z,100805.59
2023-02-15T21:58:01.799Z,100804.89
2023-02-15T22:00:30.290Z,100801.91
2023-02-15T22:02:59.005Z,100800.29
2023-02-15T22:05:30.394Z,100808.45
2023-02-15T22:07:59.378Z,100802.92
2023-02-15T22:10:32.285Z,100799.86
2023-02-15T22:13:01.466Z,100804.42
2023-02-15T22:15:34.410Z,100803.64
2023-02-15T22:18:03.101Z,100800.68
2023-02-15T22:20:31.785Z,100802.47
2023-02-15T22:22:59.896Z,100803.15
2023-02-15T22:25:28.122Z,100801.93
2023-02-15T22:27:57.247Z,100801.02
2023-02-15T22:30:36.160Z,100797.76
2023-02-15T22:33:04.138Z,100802.93
2023-02-15T22:35:34.373Z,100805.27
2023-02-15T22:38:02.404Z,100802.11
2023-02-15T22:40:32.870Z,100801.75
2023-02-15T22:43:03.099Z,100800.67
2023-02-15T22:45:31.952Z,100800.68
2023-02-15T22:48:00.323Z,100801.38
2023-02-15T22:50:30.918Z,100801.10
2023-02-15T22:53:02.503Z,100799.91
2023-02-15T22:55:33.954Z,100797.16
2023-02-15T22:58:02.370Z,100797.70
2023-02-15T23:00:33.309Z,100798.79
2023-02-15T23:03:02.359Z,100795.25
2023-02-15T23:05:32.393Z,100796.55
2023-02-15T23:08:11.742Z,100800.59
2023-02-15T23:10:40.572Z,100794.20
2023-02-15T23:13:29.504Z,100797.77
2023-02-15T23:15:59.447Z,100795.20
2023-02-15T23:18:28.920Z,100792.56
2023-02-15T23:21:06.532Z,100795.73
2023-02-15T23:23:40.837Z,100795.51
2023-02-15T23:26:20.376Z,100790.33
2023-02-15T23:28:48.668Z,100791.41
2023-02-15T23:31:21.132Z,100791.10
2023-02-15T23:33:49.568Z,100793.73
2023-02-15T23:36:37.663Z,100797.38
2023-02-15T23:39:32.242Z,100797.50
2023-02-15T23:42:01.126Z,100804.91
2023-02-15T23:44:30.830Z,100802.23
2023-02-15T23:46:59.820Z,100801.40
2023-02-15T23:49:29.157Z,100804.67
2023-02-15T23:51:57.789Z,100802.36
2023-02-15T23:54:26.122Z,100803.05
2023-02-15T23:56:56.043Z,100804.96
2023-02-15T23:59:25.473Z,100804.67
